Portsmouth, North Carolina
Current Conditions -  °F | °C
As of 9:51 AM on Friday 19 Dec 2014 (Local Time) from KHSE Reporting Station
Clear Clear  
Wind Chill: 45°   Ceiling: Unl
Heat Index: 47°   Visibility: 10mi
Dew Point: 36°   Wind: 5mph
Humidity: 66%   Direction: NA
Pressure: 30.15"   Gusts: NA
Location:  35.1144°N, 75.9815°W
Report Text: KHSE 191451Z AUTO VRB04KT 10SM CLR 08/02 A3015 RMK AO2 SLP210 T00830022 53015 TSNO
Loading
Personal Weather Stations






























Interactive Weather Map New forecast layout! Learn more

10-Day Weather Forecast

Advertisements
Track Severe Weather on mobile